createdAt,value
2023-02-07T00:00:37.937Z,0.5
2023-02-07T00:01:37.441Z,0.5
2023-02-07T00:02:37.902Z,0.5
2023-02-07T00:03:37.707Z,0.5
2023-02-07T00:04:37.576Z,0.6
2023-02-07T00:05:38.170Z,0.7
2023-02-07T00:06:37.424Z,0.7
2023-02-07T00:07:38.124Z,0.6
2023-02-07T00:08:37.995Z,0.6
2023-02-07T00:09:37.450Z,0.6
2023-02-07T00:10:37.409Z,0.5
2023-02-07T00:11:37.401Z,0.5
2023-02-07T00:12:37.761Z,0.5
2023-02-07T00:13:37.801Z,0.5
2023-02-07T00:14:37.407Z,0.6
2023-02-07T00:15:38.097Z,0.6
2023-02-07T00:16:37.482Z,0.5
2023-02-07T00:17:37.765Z,0.5
2023-02-07T00:18:38.414Z,0.6
2023-02-07T00:19:37.942Z,0.5
2023-02-07T00:20:37.935Z,0.5
2023-02-07T00:21:37.446Z,0.5
2023-02-07T00:22:37.406Z,0.5
2023-02-07T00:23:37.468Z,0.4
2023-02-07T00:24:37.410Z,0.4
2023-02-07T00:25:38.292Z,0.5
2023-02-07T00:26:37.564Z,0.5
2023-02-07T00:27:37.613Z,0.4
2023-02-07T00:28:37.529Z,0.5
2023-02-07T00:29:37.393Z,0.5
2023-02-07T00:30:38.307Z,0.5
2023-02-07T00:31:37.860Z,0.5
2023-02-07T00:32:37.695Z,0.6
2023-02-07T00:33:38.200Z,0.7
2023-02-07T00:34:37.410Z,0.7
2023-02-07T00:35:37.788Z,0.7
2023-02-07T00:36:37.798Z,0.7
2023-02-07T00:37:40.950Z,0.7
2023-02-07T00:38:40.971Z,0.7
2023-02-07T00:39:40.952Z,0.7
2023-02-07T00:41:40.948Z,0.7
2023-02-07T00:42:40.972Z,0.8
2023-02-07T00:43:40.955Z,0.7
2023-02-07T00:44:40.972Z,0.8
2023-02-07T00:47:40.966Z,0.8
2023-02-07T00:48:41.022Z,0.8
2023-02-07T00:49:40.961Z,0.8
2023-02-07T00:50:40.954Z,0.8
2023-02-07T00:51:40.970Z,0.9
2023-02-07T00:52:41.028Z,0.9
2023-02-07T00:53:49.283Z,0.9
2023-02-07T00:54:49.314Z,0.8
2023-02-07T00:55:49.282Z,0.8
2023-02-07T00:56:49.274Z,0.8
2023-02-07T00:57:49.292Z,0.8
2023-02-07T00:58:50.962Z,0.8
2023-02-07T00:59:49.293Z,0.8
2023-02-07T01:00:49.285Z,0.8
2023-02-07T01:01:49.283Z,0.9
2023-02-07T01:02:49.275Z,0.9
2023-02-07T01:03:49.329Z,0.8
2023-02-07T01:04:49.388Z,0.8
2023-02-07T01:05:49.304Z,0.9
2023-02-07T01:06:49.305Z,0.9
2023-02-07T01:08:49.474Z,1
2023-02-07T01:10:08.017Z,0.9
2023-02-07T01:13:50.382Z,0.7
2023-02-07T01:16:18.626Z,0.8
2023-02-07T01:22:29.258Z,0.7
2023-02-07T01:29:17.309Z,0.5
2023-02-07T01:30:42.190Z,0.6
2023-02-07T01:33:40.972Z,0.7
2023-02-07T01:34:40.969Z,0.7
2023-02-07T01:35:41.032Z,0.7
2023-02-07T01:36:40.973Z,0.8
2023-02-07T01:37:40.968Z,0.8
2023-02-07T01:38:40.955Z,0.8
2023-02-07T01:39:40.978Z,0.8
2023-02-07T01:40:40.999Z,0.8
2023-02-07T01:41:40.963Z,0.8
2023-02-07T01:42:40.964Z,0.8
2023-02-07T01:43:40.959Z,0.7
2023-02-07T01:44:40.968Z,0.8
2023-02-07T01:45:41.284Z,0.7
2023-02-07T01:46:40.959Z,0.7
2023-02-07T01:47:40.959Z,0.8
2023-02-07T01:48:40.959Z,0.8
2023-02-07T01:49:40.993Z,0.8
2023-02-07T01:50:40.967Z,0.7
2023-02-07T01:51:40.964Z,0.6
2023-02-07T01:52:40.970Z,0.7
2023-02-07T01:54:40.956Z,0.7
2023-02-07T01:55:41.212Z,0.8
2023-02-07T01:56:40.965Z,0.8
2023-02-07T01:57:41.005Z,0.8
2023-02-07T01:58:40.966Z,0.7
2023-02-07T01:59:40.985Z,0.7
2023-02-07T02:00:40.980Z,0.7
2023-02-07T02:01:41.009Z,0.7
2023-02-07T02:02:41.044Z,0.8
2023-02-07T02:03:40.974Z,0.8
2023-02-07T02:04:40.962Z,0.7
2023-02-07T02:05:40.969Z,0.8
2023-02-07T02:06:40.971Z,0.8
2023-02-07T02:08:41.344Z,0.7
2023-02-07T02:09:40.959Z,0.6
2023-02-07T02:10:40.963Z,0.6
2023-02-07T02:11:40.970Z,0.7
2023-02-07T02:12:40.973Z,0.6
2023-02-07T02:13:49.318Z,0.7
2023-02-07T02:14:49.311Z,0.7
2023-02-07T02:15:49.319Z,0.7
2023-02-07T02:16:49.337Z,0.7
2023-02-07T02:17:49.292Z,0.7
2023-02-07T02:18:49.308Z,0.6
2023-02-07T02:19:49.288Z,0.6
2023-02-07T02:20:49.326Z,0.6
2023-02-07T02:21:49.295Z,0.6
2023-02-07T02:22:49.297Z,0.6
2023-02-07T02:23:49.314Z,0.6
2023-02-07T02:24:49.310Z,0.7
2023-02-07T02:25:49.308Z,0.6
2023-02-07T02:26:49.290Z,0.6
2023-02-07T02:27:49.364Z,0.7
2023-02-07T02:28:49.299Z,0.6
2023-02-07T02:29:49.486Z,0.6
2023-02-07T02:31:41.056Z,0.5
2023-02-07T02:32:40.964Z,0.5
2023-02-07T02:33:40.975Z,0.4
2023-02-07T02:35:41.134Z,0.3
2023-02-07T02:36:40.958Z,0.3
2023-02-07T02:37:40.964Z,0.3
2023-02-07T02:38:40.969Z,0.3
2023-02-07T02:40:40.968Z,0.4
2023-02-07T02:41:40.977Z,0.4
2023-02-07T02:42:40.964Z,0.4
2023-02-07T02:43:40.971Z,0.4
2023-02-07T02:44:40.971Z,0.4
2023-02-07T02:45:40.963Z,0.4
2023-02-07T02:46:41.015Z,0.4
2023-02-07T02:48:40.976Z,0.3
2023-02-07T02:49:40.971Z,0.3
2023-02-07T02:50:40.981Z,0.2
2023-02-07T02:51:41.014Z,0.2
2023-02-07T02:52:50.717Z,0.2
2023-02-07T02:53:40.975Z,0.2
2023-02-07T02:54:40.969Z,0.3
2023-02-07T02:57:40.977Z,0.3
2023-02-07T02:58:40.972Z,0.3
2023-02-07T02:59:40.968Z,0.3
2023-02-07T03:02:40.968Z,0.4
2023-02-07T03:03:40.968Z,0.4
2023-02-07T03:04:40.980Z,0.4
2023-02-07T03:05:41.014Z,0.4
2023-02-07T03:06:40.969Z,0.4
2023-02-07T03:07:41.033Z,0.4
2023-02-07T03:08:40.974Z,0.4
2023-02-07T03:09:40.981Z,0.4
2023-02-07T03:10:40.974Z,0.4
2023-02-07T03:11:40.985Z,0.3
2023-02-07T03:12:41.032Z,0.3
2023-02-07T03:13:40.981Z,0.4
2023-02-07T03:14:40.972Z,0.4
2023-02-07T03:15:40.977Z,0.4
2023-02-07T03:16:49.304Z,0.4
2023-02-07T03:17:49.303Z,0.4
2023-02-07T03:18:49.302Z,0.4
2023-02-07T03:19:49.317Z,0.4
2023-02-07T03:20:49.297Z,0.4
2023-02-07T03:22:49.332Z,0.4
2023-02-07T03:23:49.311Z,0.4
2023-02-07T03:25:49.297Z,0.3
2023-02-07T03:26:49.305Z,0.3
2023-02-07T03:27:49.329Z,0.3
2023-02-07T03:28:49.298Z,0.3
2023-02-07T03:29:49.297Z,0.2
2023-02-07T03:30:49.376Z,0.1
2023-02-07T03:31:49.302Z,0.1
2023-02-07T03:32:49.490Z,0.1
2023-02-07T03:34:08.029Z,0
2023-02-07T03:36:49.520Z,-0.1
2023-02-07T03:37:37.416Z,-0.1
2023-02-07T03:38:37.793Z,-0.1
2023-02-07T03:39:38.280Z,-0.1
2023-02-07T03:40:37.425Z,-0.2
2023-02-07T03:41:37.414Z,-0.3
2023-02-07T03:42:37.419Z,-0.2
2023-02-07T03:43:38.080Z,-0.2
2023-02-07T03:44:37.419Z,-0.2
2023-02-07T03:45:38.013Z,-0.2
2023-02-07T03:46:37.519Z,-0.2
2023-02-07T03:47:37.428Z,-0.1
2023-02-07T03:48:37.507Z,-0.2
2023-02-07T03:49:38.120Z,-0.1
2023-02-07T03:50:37.423Z,-0.1
2023-02-07T03:51:37.435Z,-0.1
2023-02-07T03:52:37.686Z,0
2023-02-07T03:53:37.487Z,0
2023-02-07T03:54:38.224Z,-0.1
2023-02-07T03:55:37.906Z,-0.1
2023-02-07T03:56:37.429Z,-0.2
2023-02-07T03:57:37.985Z,-0.2
2023-02-07T03:58:37.457Z,-0.1
2023-02-07T03:59:38.009Z,0
2023-02-07T04:00:37.428Z,0
2023-02-07T04:01:38.245Z,0
2023-02-07T04:02:37.422Z,0
2023-02-07T04:04:37.457Z,0
2023-02-07T04:06:37.963Z,0
2023-02-07T04:07:38.060Z,0
2023-02-07T04:08:37.432Z,0
2023-02-07T04:09:37.938Z,0
2023-02-07T04:10:38.084Z,0
2023-02-07T04:11:38.029Z,0.1
2023-02-07T04:12:37.670Z,0.1
2023-02-07T04:13:37.430Z,0.1
2023-02-07T04:14:37.437Z,0.1
2023-02-07T04:15:37.851Z,0.1
2023-02-07T04:16:38.009Z,0.1
2023-02-07T04:17:37.425Z,0.1
2023-02-07T04:18:37.425Z,0.1
2023-02-07T04:19:37.439Z,0.1
2023-02-07T04:20:37.421Z,0.1
2023-02-07T04:21:37.430Z,0
2023-02-07T04:23:40.977Z,0.1
2023-02-07T04:24:41.000Z,-0.2
2023-02-07T04:25:40.986Z,-0.1
2023-02-07T04:26:40.976Z,-0.1
2023-02-07T04:28:40.987Z,0
2023-02-07T04:29:41.048Z,-0.1
2023-02-07T04:31:41.045Z,-0.2
2023-02-07T04:33:40.977Z,-0.1
2023-02-07T04:34:40.984Z,0
2023-02-07T04:35:41.486Z,-0.1
2023-02-07T04:36:40.981Z,-0.1
2023-02-07T04:37:41.066Z,-0.1
2023-02-07T04:39:49.330Z,-0.2
2023-02-07T04:40:49.314Z,-0.3
2023-02-07T04:41:49.302Z,-0.3
2023-02-07T04:42:49.328Z,-0.2
2023-02-07T04:43:49.299Z,-0.2
2023-02-07T04:44:49.302Z,-0.3
2023-02-07T04:45:45.861Z,-0.2
2023-02-07T04:46:49.302Z,-0.2
2023-02-07T04:47:49.305Z,-0.2
2023-02-07T04:48:49.298Z,-0.1
2023-02-07T04:49:49.321Z,-0.1
2023-02-07T04:50:49.305Z,-0.1
2023-02-07T04:51:49.312Z,-0.1
2023-02-07T04:52:49.304Z,-0.2
2023-02-07T04:53:49.307Z,-0.3
2023-02-07T04:55:08.049Z,-0.3
2023-02-07T04:58:50.400Z,-0.2
2023-02-07T05:01:18.711Z,-0.2
2023-02-07T05:07:29.266Z,-0.3
2023-02-07T05:09:20.453Z,-0.3
2023-02-07T05:16:08.524Z,-0.3
2023-02-07T05:19:50.933Z,-0.4
2023-02-07T05:24:47.472Z,-0.4
2023-02-07T05:26:28.758Z,-0.3
2023-02-07T05:26:49.220Z,-0.5
2023-02-07T05:27:37.850Z,-0.5
2023-02-07T05:28:37.774Z,-0.5
2023-02-07T05:29:37.885Z,-0.5
2023-02-07T05:30:37.593Z,-0.4
2023-02-07T05:31:37.851Z,-0.4
2023-02-07T05:32:37.449Z,-0.4
2023-02-07T05:33:37.577Z,-0.4
2023-02-07T05:34:38.216Z,-0.4
2023-02-07T05:35:38.245Z,-0.4
2023-02-07T05:36:38.559Z,-0.4
2023-02-07T05:37:37.358Z,-0.4
2023-02-07T05:39:37.442Z,-0.4
2023-02-07T05:40:37.434Z,-0.4
2023-02-07T05:41:37.601Z,-0.3
2023-02-07T05:42:37.452Z,-0.3
2023-02-07T05:43:38.221Z,-0.3
2023-02-07T05:44:38.055Z,-0.3
2023-02-07T05:45:37.875Z,-0.3
2023-02-07T05:46:37.923Z,-0.3
2023-02-07T05:48:37.427Z,-0.3
2023-02-07T05:49:37.462Z,-0.2
2023-02-07T05:50:37.679Z,-0.2
2023-02-07T05:51:37.495Z,-0.2
2023-02-07T05:52:37.584Z,-0.3
2023-02-07T05:53:37.444Z,-0.4
2023-02-07T05:54:37.444Z,-0.5
2023-02-07T05:55:37.925Z,-0.5
2023-02-07T05:56:37.453Z,-0.5
2023-02-07T05:58:37.437Z,-0.5
2023-02-07T06:00:37.437Z,-0.7
2023-02-07T06:01:37.981Z,-0.7
2023-02-07T06:02:37.923Z,-0.7
2023-02-07T06:03:37.534Z,-0.7
2023-02-07T06:04:37.908Z,-0.6
2023-02-07T06:05:38.685Z,-0.6
2023-02-07T06:06:38.052Z,-0.6
2023-02-07T06:07:38.026Z,-0.7
2023-02-07T06:08:37.589Z,-0.6
2023-02-07T06:09:40.984Z,-0.6
2023-02-07T06:10:40.996Z,-0.7
2023-02-07T06:11:41.018Z,-0.7
2023-02-07T06:12:41.002Z,-0.7
2023-02-07T06:13:40.983Z,-0.7
2023-02-07T06:14:40.991Z,-0.7
2023-02-07T06:15:41.427Z,-0.7
2023-02-07T06:16:40.988Z,-0.7
2023-02-07T06:17:40.989Z,-0.7
2023-02-07T06:19:40.979Z,-0.7
2023-02-07T06:20:40.993Z,-0.7
2023-02-07T06:21:46.435Z,-0.7
2023-02-07T06:22:41.010Z,-0.7
2023-02-07T06:23:40.976Z,-0.7
2023-02-07T06:24:41.079Z,-0.7
2023-02-07T06:25:49.304Z,-0.7
2023-02-07T06:26:49.341Z,-0.7
2023-02-07T06:27:49.364Z,-0.7
2023-02-07T06:28:49.308Z,-0.8
2023-02-07T06:29:49.311Z,-0.8
2023-02-07T06:30:49.467Z,-0.8
2023-02-07T06:31:49.356Z,-0.9
2023-02-07T06:32:49.312Z,-0.9
2023-02-07T06:33:49.314Z,-0.9
2023-02-07T06:34:49.327Z,-0.9
2023-02-07T06:35:49.316Z,-0.9
2023-02-07T06:36:49.312Z,-0.9
2023-02-07T06:37:49.321Z,-0.9
2023-02-07T06:38:49.321Z,-0.9
2023-02-07T06:39:49.323Z,-0.9
2023-02-07T06:40:49.527Z,-1
2023-02-07T06:42:08.066Z,-1
2023-02-07T06:45:50.424Z,-0.9
2023-02-07T06:48:18.654Z,-1
2023-02-07T06:52:38.092Z,-1
2023-02-07T06:54:29.293Z,-1.1
2023-02-07T07:01:17.363Z,-1.2
2023-02-07T07:03:45.610Z,-1.3
2023-02-07T07:08:42.144Z,-1.3
2023-02-07T07:13:38.710Z,-1.2
2023-02-07T07:16:19.876Z,-1.3
2023-02-07T07:16:47.923Z,-1.3
2023-02-07T07:17:30.741Z,-1
2023-02-07T07:18:37.520Z,-1.3
2023-02-07T07:19:37.452Z,-1.3
2023-02-07T07:20:37.459Z,-1.3
2023-02-07T07:21:37.448Z,-1.3
2023-02-07T07:22:37.445Z,-1.3
2023-02-07T07:23:37.963Z,-1.3
2023-02-07T07:24:38.208Z,-1.3
2023-02-07T07:25:38.505Z,-1.3
2023-02-07T07:26:48.914Z,-1.3
2023-02-07T07:27:37.659Z,-1.3
2023-02-07T07:29:38.142Z,-1.3
2023-02-07T07:30:37.931Z,-1.3
2023-02-07T07:31:38.313Z,-1.3
2023-02-07T07:33:37.594Z,-1.2
2023-02-07T07:34:37.446Z,-1.2
2023-02-07T07:35:38.076Z,-1.2
2023-02-07T07:36:38.302Z,-1.2
2023-02-07T07:38:38.329Z,-1.2
2023-02-07T07:39:37.453Z,-1.2
2023-02-07T07:40:38.146Z,-1.2
2023-02-07T07:41:38.060Z,-1.2
2023-02-07T07:42:37.446Z,-1.2
2023-02-07T07:43:37.501Z,-1.1
2023-02-07T07:44:38.685Z,-1.1
2023-02-07T07:45:38.039Z,-1.1
2023-02-07T07:46:37.839Z,-1.1
2023-02-07T07:47:37.451Z,-1.2
2023-02-07T07:48:38.056Z,-1.2
2023-02-07T07:49:37.438Z,-1.2
2023-02-07T07:50:38.367Z,-1.1
2023-02-07T07:51:37.700Z,-1.1
2023-02-07T07:52:37.455Z,-1.1
2023-02-07T07:54:37.884Z,-1.2
2023-02-07T07:55:37.442Z,-1.2
2023-02-07T07:56:37.516Z,-1.1
2023-02-07T07:57:40.981Z,-1.1
2023-02-07T07:58:42.515Z,-1.1
2023-02-07T07:59:41.030Z,-1.1
2023-02-07T08:00:36.054Z,-1.1
2023-02-07T08:02:41.031Z,-1.1
2023-02-07T08:03:41.037Z,-1.1
2023-02-07T08:04:40.994Z,-1.1
2023-02-07T08:05:40.990Z,-1
2023-02-07T08:06:40.989Z,-1
2023-02-07T08:07:41.013Z,-1
2023-02-07T08:08:40.991Z,-1
2023-02-07T08:09:40.990Z,-0.9
2023-02-07T08:10:41.296Z,-0.9
2023-02-07T08:12:43.213Z,-1
2023-02-07T08:14:49.352Z,-0.9
2023-02-07T08:15:49.314Z,-0.9
2023-02-07T08:16:49.312Z,-0.9
2023-02-07T08:17:49.341Z,-0.9
2023-02-07T08:18:49.337Z,-0.8
2023-02-07T08:19:49.334Z,-0.8
2023-02-07T08:20:49.321Z,-0.9
2023-02-07T08:21:49.329Z,-0.9
2023-02-07T08:22:49.326Z,-0.9
2023-02-07T08:23:49.322Z,-0.9
2023-02-07T08:24:49.332Z,-0.9
2023-02-07T08:25:49.319Z,-0.9
2023-02-07T08:26:49.334Z,-0.9
2023-02-07T08:27:49.345Z,-0.8
2023-02-07T08:28:49.318Z,-0.9
2023-02-07T08:29:49.327Z,-0.9
2023-02-07T08:31:08.094Z,-0.9
2023-02-07T08:32:22.176Z,-0.8
2023-02-07T08:33:36.314Z,-0.8
2023-02-07T08:34:50.432Z,-0.8
2023-02-07T08:38:32.785Z,-0.7
2023-02-07T08:43:29.291Z,-0.6
2023-02-07T08:45:20.485Z,-0.6
2023-02-07T08:46:34.656Z,-0.5
2023-02-07T08:52:08.532Z,-0.3
2023-02-07T08:55:50.268Z,-0.1
2023-02-07T08:56:18.898Z,-0.3
2023-02-07T08:56:33.034Z,-0.4
2023-02-07T08:57:09.307Z,-0.6
2023-02-07T08:57:37.455Z,-0.1
2023-02-07T08:58:38.075Z,-0.1
2023-02-07T08:59:38.240Z,-0.1
2023-02-07T09:00:38.083Z,0
2023-02-07T09:01:37.769Z,0
2023-02-07T09:02:38.172Z,0
2023-02-07T09:03:37.720Z,0.1
2023-02-07T09:04:38.019Z,0.1
2023-02-07T09:05:38.004Z,0.1
2023-02-07T09:06:37.487Z,0.2
2023-02-07T09:07:37.470Z,0.2
2023-02-07T09:08:37.828Z,0.2
2023-02-07T09:09:37.794Z,0.4
2023-02-07T09:11:37.584Z,0.4
2023-02-07T09:12:38.211Z,0.5
2023-02-07T09:13:37.848Z,0.5
2023-02-07T09:14:37.802Z,0.6
2023-02-07T09:15:38.226Z,0.6
2023-02-07T09:16:37.535Z,0.6
2023-02-07T09:17:38.036Z,0.6
2023-02-07T09:18:37.604Z,0.7
2023-02-07T09:19:37.775Z,0.8
2023-02-07T09:20:38.881Z,0.8
2023-02-07T09:21:38.144Z,0.8
2023-02-07T09:22:34.896Z,0.9
2023-02-07T09:23:37.973Z,0.9
2023-02-07T09:24:38.109Z,0.9
2023-02-07T09:25:37.462Z,1
2023-02-07T09:26:38.076Z,1
2023-02-07T09:27:38.218Z,1.1
2023-02-07T09:28:38.099Z,1.1
2023-02-07T09:29:37.476Z,1.1
2023-02-07T09:30:37.566Z,1.2
2023-02-07T09:31:37.632Z,1.3
2023-02-07T09:33:37.461Z,1.4
2023-02-07T09:34:37.457Z,1.5
2023-02-07T09:35:37.743Z,1.6
2023-02-07T09:36:38.304Z,1.6
2023-02-07T09:37:48.688Z,1.6
2023-02-07T09:38:41.008Z,1.7
2023-02-07T09:39:41.015Z,1.8
2023-02-07T09:40:41.008Z,2
2023-02-07T09:41:41.048Z,2
2023-02-07T09:42:40.998Z,2
2023-02-07T09:43:41.176Z,1.9
2023-02-07T09:45:41.018Z,2.2
2023-02-07T09:46:41.047Z,2.3
2023-02-07T09:47:41.032Z,2.6
2023-02-07T09:48:41.009Z,2.7
2023-02-07T09:49:41.010Z,2.8
2023-02-07T09:50:41.430Z,2.8
2023-02-07T09:51:41.046Z,3
2023-02-07T09:52:41.014Z,3.3
2023-02-07T09:53:41.017Z,3.4
2023-02-07T09:54:42.001Z,3.6
2023-02-07T09:55:49.334Z,3.9
2023-02-07T09:56:49.338Z,4.2
2023-02-07T09:57:49.354Z,4.1
2023-02-07T09:58:49.336Z,4.3
2023-02-07T09:59:49.333Z,4.4
2023-02-07T10:00:49.349Z,4.4
2023-02-07T10:01:49.332Z,4.6
2023-02-07T10:02:49.529Z,4.9
2023-02-07T10:03:49.366Z,4.9
2023-02-07T10:04:49.344Z,5.2
2023-02-07T10:05:49.351Z,5.3
2023-02-07T10:06:49.336Z,5.2
2023-02-07T10:07:49.341Z,4.8
2023-02-07T10:08:49.336Z,5.1
2023-02-07T10:09:50.136Z,5.3
2023-02-07T10:10:49.363Z,5.5
2023-02-07T10:12:08.055Z,5.5
2023-02-07T10:13:22.185Z,5.7
2023-02-07T10:14:36.313Z,5.8
2023-02-07T10:15:50.554Z,5.9
2023-02-07T10:18:18.701Z,5.7
2023-02-07T10:19:32.802Z,5.6
2023-02-07T10:24:29.295Z,5.8
2023-02-07T10:27:34.602Z,5.9
2023-02-07T10:33:08.552Z,5.3
2023-02-07T10:34:43.365Z,5.3
2023-02-07T10:34:57.707Z,5.3
2023-02-07T10:35:19.966Z,5.6
2023-02-07T10:35:33.468Z,5.6
2023-02-07T10:35:47.630Z,5.3
2023-02-07T10:36:37.937Z,4.8
2023-02-07T10:37:37.974Z,4.7
2023-02-07T10:38:37.458Z,4.6
2023-02-07T10:39:37.476Z,4.5
2023-02-07T10:40:37.843Z,4.5
2023-02-07T10:41:37.456Z,4.6
2023-02-07T10:42:37.546Z,4.4
2023-02-07T10:43:37.466Z,4.4
2023-02-07T10:44:35.950Z,4.4
2023-02-07T10:45:37.461Z,4.4
2023-02-07T10:47:38.075Z,4.4
2023-02-07T10:48:37.923Z,4.4
2023-02-07T10:49:37.474Z,4.4
2023-02-07T10:50:37.461Z,4.4
2023-02-07T10:51:38.153Z,4.5
2023-02-07T10:52:37.517Z,4.5
2023-02-07T10:53:49.100Z,4.6
2023-02-07T10:54:37.522Z,4.7
2023-02-07T10:55:37.575Z,4.8
2023-02-07T10:56:37.485Z,4.8
2023-02-07T10:57:37.521Z,4.8
2023-02-07T10:58:37.592Z,4.7
2023-02-07T10:59:38.319Z,4.8
2023-02-07T11:00:38.469Z,4.8
2023-02-07T11:01:39.396Z,4.7
2023-02-07T11:02:37.652Z,4.7
2023-02-07T11:03:37.461Z,4.6
2023-02-07T11:05:38.250Z,4.8
2023-02-07T11:06:38.009Z,4.9
2023-02-07T11:07:47.401Z,5
2023-02-07T11:08:37.466Z,5.1
2023-02-07T11:09:38.339Z,5.1
2023-02-07T11:10:37.473Z,5.1
2023-02-07T11:11:37.768Z,5
2023-02-07T11:12:38.188Z,4.9
2023-02-07T11:13:37.470Z,5
2023-02-07T11:14:40.102Z,5
2023-02-07T11:15:38.702Z,4.9
2023-02-07T11:16:37.467Z,5.1
2023-02-07T11:17:41.065Z,5
2023-02-07T11:18:43.501Z,5.1
2023-02-07T11:19:41.023Z,5.2
2023-02-07T11:20:41.043Z,5.3
2023-02-07T11:21:41.047Z,5.4
2023-02-07T11:22:41.038Z,5.1
2023-02-07T11:23:41.011Z,5.2
2023-02-07T11:24:41.017Z,5.1
2023-02-07T11:25:41.286Z,5.2
2023-02-07T11:26:41.079Z,5.2
2023-02-07T11:27:41.048Z,5.1
2023-02-07T11:28:41.019Z,5.1
2023-02-07T11:30:41.058Z,5.3
2023-02-07T11:31:41.158Z,5.2
2023-02-07T11:32:41.017Z,5.4
2023-02-07T11:33:49.344Z,5.7
2023-02-07T11:34:49.364Z,5.8
2023-02-07T11:35:49.371Z,5.9
2023-02-07T11:36:49.348Z,5.9
2023-02-07T11:37:49.346Z,5.9
2023-02-07T11:38:49.351Z,5.9
2023-02-07T11:39:49.344Z,5.9
2023-02-07T11:40:49.349Z,5.9
2023-02-07T11:41:49.350Z,5.9
2023-02-07T11:42:49.363Z,5.9
2023-02-07T11:43:49.363Z,5.9
2023-02-07T11:44:49.352Z,5.9
2023-02-07T11:45:49.346Z,5.9
2023-02-07T11:46:49.373Z,6
2023-02-07T11:47:49.373Z,6
2023-02-07T11:48:49.372Z,6.1
2023-02-07T11:50:08.072Z,6.2
2023-02-07T11:53:50.451Z,6
2023-02-07T12:00:38.154Z,6.2
2023-02-07T12:02:29.320Z,5.9
2023-02-07T12:04:20.517Z,6.2
2023-02-07T12:06:37.492Z,6.1
2023-02-07T12:07:37.504Z,6.3
2023-02-07T12:08:37.488Z,6.4
2023-02-07T12:09:37.502Z,6.3
2023-02-07T12:10:37.561Z,6.3
2023-02-07T12:11:37.487Z,6.4
2023-02-07T12:12:37.525Z,6.3
2023-02-07T12:13:37.536Z,6.2
2023-02-07T12:14:38.292Z,6.3
2023-02-07T12:15:38.439Z,6.4
2023-02-07T12:18:37.720Z,6.5
2023-02-07T12:19:37.488Z,6.5
2023-02-07T12:20:38.492Z,6.6
2023-02-07T12:21:37.983Z,6.5
2023-02-07T12:22:41.904Z,6.5
2023-02-07T12:23:43.881Z,6.3
2023-02-07T12:24:37.794Z,6.3
2023-02-07T12:25:37.889Z,6.2
2023-02-07T12:26:37.855Z,6.3
2023-02-07T12:27:37.519Z,6.2
2023-02-07T12:28:37.499Z,6.4
2023-02-07T12:29:37.497Z,6.3
2023-02-07T12:30:37.908Z,6.4
2023-02-07T12:31:37.647Z,6.6
2023-02-07T12:32:37.669Z,6.7
2023-02-07T12:33:38.255Z,6.7
2023-02-07T12:34:37.507Z,6.7
2023-02-07T12:35:41.141Z,6.7
2023-02-07T12:36:37.495Z,6.7
2023-02-07T12:37:37.502Z,6.7
2023-02-07T12:38:38.007Z,6.5
2023-02-07T12:39:37.536Z,6.4
2023-02-07T12:40:37.850Z,6.5
2023-02-07T12:41:37.501Z,6.5
2023-02-07T12:42:37.624Z,6.4
2023-02-07T12:43:38.143Z,6.4
2023-02-07T12:44:37.514Z,6.6
2023-02-07T12:45:37.956Z,6.7
2023-02-07T12:46:37.818Z,6.7
2023-02-07T12:47:37.508Z,6.6
2023-02-07T12:48:37.543Z,6.7
2023-02-07T12:49:41.054Z,6.7
2023-02-07T12:50:41.048Z,6.8
2023-02-07T12:51:41.049Z,6.7
2023-02-07T12:52:41.076Z,6.6
2023-02-07T12:53:41.059Z,6.7
2023-02-07T12:54:41.061Z,6.7
2023-02-07T12:57:41.054Z,6.6
2023-02-07T12:58:41.053Z,6.8
2023-02-07T12:59:41.056Z,6.9
2023-02-07T13:00:41.114Z,7
2023-02-07T13:01:41.056Z,7
2023-02-07T13:02:41.042Z,6.8
2023-02-07T13:03:41.052Z,6.9
2023-02-07T13:04:41.142Z,7.1
2023-02-07T13:05:49.389Z,7.3
2023-02-07T13:06:42.479Z,7
2023-02-07T13:07:49.398Z,7.1
2023-02-07T13:08:49.379Z,7.1
2023-02-07T13:09:49.404Z,6.9
2023-02-07T13:10:49.660Z,7
2023-02-07T13:11:49.371Z,7
2023-02-07T13:12:49.384Z,6.8
2023-02-07T13:13:49.392Z,6.8
2023-02-07T13:14:49.378Z,6.5
2023-02-07T13:15:49.379Z,6.6
2023-02-07T13:16:49.439Z,6.5
2023-02-07T13:17:49.380Z,6.4
2023-02-07T13:18:49.376Z,6.6
2023-02-07T13:20:49.377Z,6.3
2023-02-07T13:22:08.098Z,6.4
2023-02-07T13:24:37.128Z,6.7
2023-02-07T13:25:50.480Z,6.8
2023-02-07T13:28:18.778Z,6.5
2023-02-07T13:29:32.846Z,6.5
2023-02-07T13:32:38.156Z,6.3
2023-02-07T13:34:29.337Z,6.6
2023-02-07T13:36:20.528Z,6.9
2023-02-07T13:37:34.645Z,7
2023-02-07T13:41:17.019Z,7
2023-02-07T13:43:08.606Z,7
2023-02-07T13:46:50.995Z,6.8
2023-02-07T13:51:47.530Z,6.4
2023-02-07T13:56:43.370Z,7
2023-02-07T13:56:58.405Z,6.9
2023-02-07T13:57:33.254Z,7.1
2023-02-07T13:58:10.779Z,6.4
2023-02-07T13:58:37.753Z,7.1
2023-02-07T13:59:37.504Z,7
2023-02-07T14:00:37.957Z,7
2023-02-07T14:01:37.905Z,7.1
2023-02-07T14:02:38.014Z,6.9
2023-02-07T14:03:38.371Z,6.9
2023-02-07T14:04:37.545Z,6.9
2023-02-07T14:05:38.334Z,6.9
2023-02-07T14:06:38.284Z,6.9
2023-02-07T14:07:38.246Z,6.8
2023-02-07T14:08:37.856Z,6.6
2023-02-07T14:09:37.528Z,6.6
2023-02-07T14:10:38.193Z,6.6
2023-02-07T14:11:37.698Z,6.7
2023-02-07T14:12:38.060Z,6.7
2023-02-07T14:13:37.988Z,6.8
2023-02-07T14:14:37.536Z,6.8
2023-02-07T14:15:38.530Z,6.8
2023-02-07T14:16:37.518Z,6.6
2023-02-07T14:17:37.843Z,6.4
2023-02-07T14:18:37.517Z,6.4
2023-02-07T14:19:37.518Z,6.3
2023-02-07T14:20:38.051Z,6.4
2023-02-07T14:21:37.544Z,6.4
2023-02-07T14:22:37.807Z,6.4
2023-02-07T14:23:37.919Z,6.3
2023-02-07T14:24:37.998Z,6.4
2023-02-07T14:25:37.852Z,6.5
2023-02-07T14:26:37.559Z,6.7
2023-02-07T14:27:38.317Z,6.7
2023-02-07T14:29:37.877Z,6.8
2023-02-07T14:30:37.961Z,6.8
2023-02-07T14:31:37.635Z,6.9
2023-02-07T14:32:38.246Z,7
2023-02-07T14:33:37.511Z,7
2023-02-07T14:34:37.826Z,7.1
2023-02-07T14:35:38.071Z,7.1
2023-02-07T14:36:37.585Z,7
2023-02-07T14:37:38.030Z,7.1
2023-02-07T14:38:37.570Z,7.1
2023-02-07T14:40:41.329Z,7.1
2023-02-07T14:41:41.066Z,7
2023-02-07T14:42:41.067Z,7
2023-02-07T14:43:41.091Z,7
2023-02-07T14:44:41.079Z,7
2023-02-07T14:45:41.121Z,7
2023-02-07T14:46:41.142Z,7
2023-02-07T14:48:41.089Z,6.9
2023-02-07T14:49:41.061Z,6.8
2023-02-07T14:50:41.330Z,6.9
2023-02-07T14:51:41.066Z,7
2023-02-07T14:53:41.141Z,7
2023-02-07T14:54:41.107Z,7
2023-02-07T14:55:49.396Z,6.9
2023-02-07T14:56:49.395Z,6.6
2023-02-07T14:57:49.419Z,6.4
2023-02-07T14:58:49.396Z,6.1
2023-02-07T14:59:49.399Z,6.2
2023-02-07T15:00:49.402Z,6.3
2023-02-07T15:01:49.400Z,6.3
2023-02-07T15:02:49.496Z,6.4
2023-02-07T15:03:49.400Z,6.4
2023-02-07T15:04:49.430Z,6.4
2023-02-07T15:05:49.401Z,6.4
2023-02-07T15:06:49.426Z,6.5
2023-02-07T15:07:49.394Z,6.6
2023-02-07T15:09:49.410Z,6.5
2023-02-07T15:10:49.459Z,6.6
2023-02-07T15:11:59.857Z,6.5
2023-02-07T15:13:08.125Z,6.4
2023-02-07T15:14:22.253Z,6.4
2023-02-07T15:16:51.471Z,6.1
2023-02-07T15:19:18.755Z,6.2
2023-02-07T15:20:32.912Z,6.2
2023-02-07T15:25:29.382Z,6.1
2023-02-07T15:27:20.562Z,6.1
2023-02-07T15:28:34.717Z,6.1
2023-02-07T15:29:32.236Z,6.1
2023-02-07T15:30:38.089Z,5.9
2023-02-07T15:31:37.701Z,5.9
2023-02-07T15:32:38.134Z,5.8
2023-02-07T15:33:37.527Z,5.8
2023-02-07T15:35:37.534Z,5.8
2023-02-07T15:36:37.970Z,5.7
2023-02-07T15:37:37.538Z,5.7
2023-02-07T15:38:38.100Z,5.7
2023-02-07T15:39:38.017Z,5.7
2023-02-07T15:40:37.696Z,5.7
2023-02-07T15:41:37.544Z,5.6
2023-02-07T15:42:37.534Z,5.6
2023-02-07T15:43:38.166Z,5.4
2023-02-07T15:45:38.311Z,5.3
2023-02-07T15:46:38.240Z,5.4
2023-02-07T15:47:37.517Z,5.4
2023-02-07T15:48:37.528Z,5.3
2023-02-07T15:49:37.912Z,5.3
2023-02-07T15:50:38.070Z,5.3
2023-02-07T15:51:38.242Z,5.2
2023-02-07T15:52:37.535Z,5.2
2023-02-07T15:53:37.534Z,5.3
2023-02-07T15:54:37.538Z,5.3
2023-02-07T15:55:38.388Z,5.3
2023-02-07T15:56:39.450Z,5.2
2023-02-07T15:57:37.539Z,5.2
2023-02-07T15:58:37.537Z,5.2
2023-02-07T15:59:37.253Z,5.2
2023-02-07T16:00:37.900Z,5.2
2023-02-07T16:01:37.961Z,5.2
2023-02-07T16:02:37.745Z,5.2
2023-02-07T16:03:37.683Z,5.2
2023-02-07T16:04:37.530Z,5.2
2023-02-07T16:05:37.589Z,5.1
2023-02-07T16:06:37.624Z,5
2023-02-07T16:07:37.553Z,4.9
2023-02-07T16:08:37.803Z,5
2023-02-07T16:10:38.092Z,4.9
2023-02-07T16:11:38.056Z,4.9
2023-02-07T16:12:38.395Z,4.9
2023-02-07T16:13:41.087Z,4.8
2023-02-07T16:14:41.105Z,4.8
2023-02-07T16:17:41.110Z,4.8
2023-02-07T16:18:41.094Z,4.7
2023-02-07T16:19:41.094Z,4.7
2023-02-07T16:20:41.427Z,4.5
2023-02-07T16:21:41.097Z,4.5
2023-02-07T16:22:41.090Z,4.6
2023-02-07T16:23:41.107Z,4.6
2023-02-07T16:25:41.097Z,4.5
2023-02-07T16:26:41.107Z,4.4
2023-02-07T16:28:41.091Z,4.4
2023-02-07T16:29:41.202Z,4.4
2023-02-07T16:30:49.454Z,4.4
2023-02-07T16:31:49.479Z,4.4
2023-02-07T16:32:49.424Z,4.4
2023-02-07T16:33:49.464Z,4.4
2023-02-07T16:34:59.263Z,4.4
2023-02-07T16:35:49.427Z,4.3
2023-02-07T16:36:49.426Z,4.3
2023-02-07T16:37:49.477Z,4.2
2023-02-07T16:38:49.430Z,4.1
2023-02-07T16:39:49.446Z,4
2023-02-07T16:40:49.452Z,4.1
2023-02-07T16:41:49.433Z,4
2023-02-07T16:42:49.469Z,4
2023-02-07T16:43:49.454Z,4
2023-02-07T16:44:49.419Z,4
2023-02-07T16:45:49.501Z,3.9
2023-02-07T16:47:08.149Z,4
2023-02-07T16:48:22.283Z,3.9
2023-02-07T16:49:36.400Z,3.9
2023-02-07T16:50:50.524Z,3.9
2023-02-07T16:53:18.775Z,3.8
2023-02-07T16:54:32.586Z,3.8
2023-02-07T16:55:38.268Z,3.7
2023-02-07T16:56:38.395Z,3.8
2023-02-07T16:57:38.307Z,3.6
2023-02-07T16:58:37.549Z,3.6